Time;durP1;ratioP1;P1;durP2;ratioP2;P2;SDS_P1;SDS_P2;PMS_P1;PMS_P2;Temp;Humidity;BMP_temperature;BMP_pressure;BME280_temperature;BME280_humidity;BME280_pressure;Samples;Min_cycle;Max_cycle;Signal;HPM_P1;HPM_P2
2023/10/06 00:01:27;;;;;;;16.15;4.85;;;;;;;;;;6048795;23;20023;-56
2023/10/06 00:04:22;;;;;;;12.25;3.60;;;;;;;;;;6053344;23;20078;-55
2023/10/06 00:07:09;;;;;;;12.68;3.30;;;;;;;;;;6055940;23;20102;-58
2023/10/06 00:10:09;;;;;;;9.23;4.00;;;;;;;;;;6054186;23;20027;-58
2023/10/06 00:12:54;;;;;;;9.48;3.38;;;;;;;;;;6052727;23;20079;-74
2023/10/06 00:15:45;;;;;;;10.80;3.70;;;;;;;;;;6053999;23;20033;-73
2023/10/06 00:18:38;;;;;;;11.75;3.40;;;;;;;;;;6057914;23;20038;-73
2023/10/06 00:21:33;;;;;;;11.88;3.80;;;;;;;;;;6053646;23;20027;-71
2023/10/06 00:24:25;;;;;;;19.38;5.15;;;;;;;;;;6056397;23;20018;-73
2023/10/06 00:27:14;;;;;;;15.10;4.25;;;;;;;;;;6053827;23;20027;-55
2023/10/06 00:30:11;;;;;;;14.50;4.00;;;;;;;;;;6052864;23;20335;-65
2023/10/06 00:32:56;;;;;;;10.13;4.55;;;;;;;;;;6053852;23;20185;-65
2023/10/06 00:35:44;;;;;;;22.17;4.13;;;;;;;;;;6053529;23;20031;-64
2023/10/06 00:38:37;;;;;;;13.13;4.18;;;;;;;;;;6054743;23;20031;-64
2023/10/06 00:41:33;;;;;;;11.18;3.90;;;;;;;;;;6053915;23;20023;-65
2023/10/06 00:44:21;;;;;;;15.88;3.78;;;;;;;;;;6052495;23;20493;-52
2023/10/06 00:47:13;;;;;;;24.70;4.63;;;;;;;;;;6051481;23;20106;-73
2023/10/06 00:50:05;;;;;;;9.05;3.70;;;;;;;;;;6053349;23;20023;-73
2023/10/06 00:52:55;;;;;;;15.52;4.10;;;;;;;;;;6048079;23;20090;-72
2023/10/06 00:55:41;;;;;;;15.32;4.03;;;;;;;;;;6053691;23;20026;-73
2023/10/06 00:58:35;;;;;;;10.10;4.15;;;;;;;;;;6055783;23;20022;-73
2023/10/06 01:01:22;;;;;;;20.43;4.20;;;;;;;;;;6054853;23;20022;-73
2023/10/06 01:04:18;;;;;;;14.20;3.83;;;;;;;;;;6052994;23;20369;-55
2023/10/06 01:07:16;;;;;;;16.25;4.10;;;;;;;;;;6053064;23;20027;-58
2023/10/06 01:10:07;;;;;;;18.10;3.72;;;;;;;;;;6052805;23;20023;-59
2023/10/06 01:12:57;;;;;;;21.50;4.80;;;;;;;;;;6052877;23;20023;-59
2023/10/06 01:15:49;;;;;;;13.93;3.70;;;;;;;;;;6050676;23;20086;-59
2023/10/06 01:18:52;;;;;;;18.52;3.90;;;;;;;;;;6053956;23;20663;-59
2023/10/06 01:21:39;;;;;;;19.98;3.88;;;;;;;;;;6048147;23;20703;-54
2023/10/06 01:24:29;;;;;;;16.58;3.80;;;;;;;;;;6050854;23;20027;-59
2023/10/06 01:27:16;;;;;;;22.15;5.30;;;;;;;;;;6054864;23;20031;-59
2023/10/06 01:30:17;;;;;;;22.27;4.40;;;;;;;;;;6050266;23;20399;-59
2023/10/06 01:33:05;;;;;;;20.40;4.68;;;;;;;;;;6053530;23;20031;-58
2023/10/06 01:35:59;;;;;;;21.88;4.65;;;;;;;;;;6051693;23;20086;-59
2023/10/06 01:38:44;;;;;;;19.52;4.82;;;;;;;;;;6050998;23;20083;-59
2023/10/06 01:41:39;;;;;;;15.45;4.10;;;;;;;;;;6051786;23;20030;-59
2023/10/06 01:44:27;;;;;;;20.42;4.30;;;;;;;;;;6055405;23;20296;-59
2023/10/06 01:47:21;;;;;;;23.38;4.50;;;;;;;;;;6054847;23;20529;-59
2023/10/06 01:50:11;;;;;;;12.73;4.20;;;;;;;;;;6054197;23;20426;-59
2023/10/06 01:53:06;;;;;;;14.27;3.78;;;;;;;;;;6050617;23;20061;-59
2023/10/06 01:55:52;;;;;;;27.15;4.30;;;;;;;;;;6053347;23;20030;-58
2023/10/06 01:58:45;;;;;;;15.20;4.88;;;;;;;;;;6051914;23;20078;-45
2023/10/06 02:01:35;;;;;;;16.77;4.20;;;;;;;;;;6054091;23;20027;-59
2023/10/06 02:04:39;;;;;;;14.80;4.00;;;;;;;;;;6042435;23;20033;-59
2023/10/06 02:07:24;;;;;;;16.58;3.83;;;;;;;;;;6049194;23;20027;-60
2023/10/06 02:10:18;;;;;;;15.30;4.20;;;;;;;;;;6054819;23;20023;-59
2023/10/06 02:13:08;;;;;;;19.95;4.15;;;;;;;;;;6051553;23;20045;-59
2023/10/06 02:16:03;;;;;;;13.60;4.00;;;;;;;;;;6051855;23;20026;-64
2023/10/06 02:18:56;;;;;;;19.75;3.95;;;;;;;;;;6054255;23;20102;-59
2023/10/06 02:21:50;;;;;;;17.48;4.15;;;;;;;;;;6053378;23;20098;-59
2023/10/06 02:24:38;;;;;;;24.30;3.85;;;;;;;;;;6051396;23;20038;-59
2023/10/06 02:27:43;;;;;;;22.25;5.47;;;;;;;;;;6053804;23;20033;-59
2023/10/06 02:30:24;;;;;;;26.75;5.13;;;;;;;;;;6051010;23;20062;-60
2023/10/06 02:33:13;;;;;;;20.88;4.10;;;;;;;;;;6051690;23;20473;-59
2023/10/06 02:36:03;;;;;;;25.10;4.82;;;;;;;;;;6049342;23;20027;-70
2023/10/06 02:38:54;;;;;;;17.17;4.22;;;;;;;;;;6048544;23;20121;-64
2023/10/06 02:41:49;;;;;;;31.48;5.32;;;;;;;;;;6052790;23;20465;-65
2023/10/06 02:44:42;;;;;;;30.80;4.93;;;;;;;;;;6050883;23;20031;-63
2023/10/06 02:47:29;;;;;;;32.13;5.22;;;;;;;;;;6052324;23;20027;-64
2023/10/06 02:50:24;;;;;;;35.22;5.47;;;;;;;;;;6050643;23;20023;-64
2023/10/06 02:52:54;;;;;;;36.13;5.65;;;;;;;;;;6031305;23;20033;-58
2023/10/06 02:55:31;;;;;;;29.45;4.95;;;;;;;;;;6050062;23;20467;-59
2023/10/06 02:58:34;;;;;;;33.50;5.75;;;;;;;;;;6050437;23;20031;-52
2023/10/06 03:01:08;;;;;;;29.52;5.32;;;;;;;;;;6042970;23;20023;-50
2023/10/06 03:04:06;;;;;;;42.88;5.32;;;;;;;;;;6052820;23;20027;-54
2023/10/06 03:06:53;;;;;;;29.38;5.70;;;;;;;;;;6052449;23;20454;-49
2023/10/06 03:09:47;;;;;;;39.75;5.68;;;;;;;;;;6050823;23;20430;-47
2023/10/06 03:12:34;;;;;;;38.03;4.93;;;;;;;;;;6048731;23;20031;-48
2023/10/06 03:15:35;;;;;;;38.42;5.63;;;;;;;;;;6053491;23;20398;-48
2023/10/06 03:18:30;;;;;;;30.73;5.22;;;;;;;;;;6050683;23;20414;-46
2023/10/06 03:21:15;;;;;;;30.63;5.88;;;;;;;;;;6048191;23;20030;-46
2023/10/06 03:24:19;;;;;;;37.83;5.47;;;;;;;;;;6052352;23;20418;-46
2023/10/06 03:26:57;;;;;;;36.40;6.13;;;;;;;;;;6051133;23;20761;-46
2023/10/06 03:29:54;;;;;;;44.40;6.07;;;;;;;;;;6050716;23;20034;-58
2023/10/06 03:32:39;;;;;;;30.35;5.85;;;;;;;;;;6048674;23;20027;-63
2023/10/06 03:35:36;;;;;;;25.30;4.72;;;;;;;;;;6049719;23;20106;-63
2023/10/06 03:46:18;;;;;;;35.00;5.00;;;;;;;;;;6051801;23;19992;-63
2023/10/06 03:49:07;;;;;;;25.70;4.68;;;;;;;;;;6049691;23;20796;-49
2023/10/06 03:52:03;;;;;;;34.55;4.95;;;;;;;;;;6051937;23;20082;-59
2023/10/06 03:54:50;;;;;;;33.95;4.00;;;;;;;;;;6049995;23;20027;-60
2023/10/06 03:57:42;;;;;;;38.05;5.38;;;;;;;;;;6052142;23;20027;-60
2023/10/06 04:00:38;;;;;;;32.80;5.40;;;;;;;;;;6050962;23;20023;-60
2023/10/06 04:03:23;;;;;;;35.60;5.25;;;;;;;;;;6050556;23;20569;-59
2023/10/06 04:06:15;;;;;;;39.10;5.95;;;;;;;;;;6048522;23;20042;-59
2023/10/06 04:08:53;;;;;;;38.38;6.38;;;;;;;;;;6051531;23;20027;-64
2023/10/06 04:11:42;;;;;;;35.67;5.43;;;;;;;;;;6048774;23;20435;-50
2023/10/06 04:14:35;;;;;;;30.30;5.65;;;;;;;;;;6051502;23;20464;-50
2023/10/06 04:17:36;;;;;;;39.20;5.70;;;;;;;;;;6054893;23;20111;-51
2023/10/06 04:20:29;;;;;;;30.10;4.53;;;;;;;;;;6053739;23;20079;-48
2023/10/06 04:23:25;;;;;;;30.60;4.30;;;;;;;;;;6049694;23;20022;-48
2023/10/06 04:26:16;;;;;;;20.85;3.83;;;;;;;;;;6048464;23;20402;-49
2023/10/06 04:29:08;;;;;;;23.00;4.13;;;;;;;;;;6048042;23;20399;-63
2023/10/06 04:31:55;;;;;;;18.20;3.35;;;;;;;;;;6050383;23;20593;-62
2023/10/06 04:34:48;;;;;;;28.42;3.88;;;;;;;;;;6054889;23;20023;-63
2023/10/06 04:37:35;;;;;;;22.40;3.58;;;;;;;;;;6051304;23;20367;-62
2023/10/06 04:40:29;;;;;;;21.00;3.95;;;;;;;;;;6042543;23;20030;-63
2023/10/06 04:43:17;;;;;;;18.98;3.90;;;;;;;;;;6046861;23;20090;-47
2023/10/06 04:46:09;;;;;;;19.92;3.47;;;;;;;;;;6048830;23;20038;-58
2023/10/06 04:49:00;;;;;;;20.95;3.30;;;;;;;;;;6044255;23;20078;-59
2023/10/06 04:51:50;;;;;;;26.52;3.33;;;;;;;;;;6053829;23;20026;-59
2023/10/06 04:54:38;;;;;;;25.15;3.92;;;;;;;;;;6049921;23;20094;-58
2023/10/06 04:57:32;;;;;;;20.02;3.47;;;;;;;;;;6052895;23;20026;-57
2023/10/06 05:00:19;;;;;;;20.95;2.95;;;;;;;;;;6053797;23;20469;-58
2023/10/06 05:03:14;;;;;;;22.77;3.70;;;;;;;;;;6053113;23;20027;-59
2023/10/06 05:06:01;;;;;;;23.27;3.47;;;;;;;;;;6051649;23;20031;-59
2023/10/06 05:08:55;;;;;;;31.10;3.40;;;;;;;;;;6051131;23;20094;-58
2023/10/06 05:11:43;;;;;;;23.92;3.60;;;;;;;;;;6052065;23;20026;-58
2023/10/06 05:14:38;;;;;;;13.98;3.40;;;;;;;;;;6052538;23;20023;-58
2023/10/06 05:17:23;;;;;;;14.63;2.55;;;;;;;;;;6053147;23;20034;-58
2023/10/06 05:20:20;;;;;;;19.35;3.60;;;;;;;;;;6084566;23;20346;-50
2023/10/06 05:23:07;;;;;;;20.55;3.13;;;;;;;;;;6081716;23;20045;-65
2023/10/06 05:26:07;;;;;;;16.02;2.75;;;;;;;;;;6082917;23;20026;-64
2023/10/06 05:28:50;;;;;;;15.80;2.78;;;;;;;;;;6076759;23;20057;-65
2023/10/06 05:31:45;;;;;;;18.20;3.08;;;;;;;;;;6082121;23;20026;-64
2023/10/06 05:34:31;;;;;;;13.63;2.80;;;;;;;;;;6080721;23;20048;-65
2023/10/06 05:37:24;;;;;;;18.15;3.25;;;;;;;;;;6082286;23;20085;-65
2023/10/06 05:40:12;;;;;;;14.80;3.17;;;;;;;;;;6080457;23;20751;-59
2023/10/06 05:43:05;;;;;;;20.38;3.53;;;;;;;;;;6083857;23;20081;-59
2023/10/06 05:46:00;;;;;;;23.90;2.83;;;;;;;;;;6084815;23;20361;-59
2023/10/06 05:48:53;;;;;;;18.33;2.75;;;;;;;;;;6079028;23;20414;-60
2023/10/06 05:51:43;;;;;;;10.13;2.42;;;;;;;;;;6082179;23;20752;-59
2023/10/06 05:54:41;;;;;;;19.45;3.33;;;;;;;;;;6079052;23;20027;-60
2023/10/06 05:57:29;;;;;;;12.75;2.83;;;;;;;;;;6081166;23;20279;-46
2023/10/06 06:00:27;;;;;;;16.92;3.08;;;;;;;;;;6081973;23;20046;-47
2023/10/06 06:03:16;;;;;;;14.27;2.42;;;;;;;;;;6080367;23;20544;-47
2023/10/06 06:06:12;;;;;;;20.05;2.90;;;;;;;;;;6081339;23;20477;-51
2023/10/06 06:08:58;;;;;;;14.90;2.60;;;;;;;;;;6079620;23;20106;-45
2023/10/06 06:11:51;;;;;;;17.00;3.33;;;;;;;;;;6083435;23;20022;-45
2023/10/06 06:14:39;;;;;;;14.85;2.50;;;;;;;;;;6082760;23;20030;-49
2023/10/06 06:17:40;;;;;;;14.95;2.78;;;;;;;;;;6079039;23;20059;-63
2023/10/06 06:20:33;;;;;;;15.00;2.63;;;;;;;;;;6080334;23;20030;-63
2023/10/06 06:23:26;;;;;;;16.17;2.53;;;;;;;;;;6079046;23;20074;-63
2023/10/06 06:26:20;;;;;;;13.65;2.50;;;;;;;;;;6079895;23;20111;-63
2023/10/06 06:29:08;;;;;;;15.10;2.50;;;;;;;;;;6083496;23;20022;-62
2023/10/06 06:32:11;;;;;;;9.45;2.20;;;;;;;;;;6078984;23;20053;-62
2023/10/06 06:34:55;;;;;;;8.88;1.80;;;;;;;;;;6078304;23;20117;-48
2023/10/06 06:37:43;;;;;;;14.63;2.35;;;;;;;;;;6082424;23;20029;-57
2023/10/06 06:40:37;;;;;;;7.25;2.13;;;;;;;;;;6082336;23;20365;-57
2023/10/06 06:43:24;;;;;;;9.43;2.00;;;;;;;;;;6082669;23;20402;-58
2023/10/06 06:46:24;;;;;;;10.98;2.45;;;;;;;;;;6084410;23;20030;-58
2023/10/06 06:49:11;;;;;;;6.60;1.55;;;;;;;;;;6084524;23;20093;-58
2023/10/06 06:52:07;;;;;;;6.88;1.67;;;;;;;;;;6081735;23;20520;-65
2023/10/06 06:54:53;;;;;;;4.40;1.55;;;;;;;;;;6078200;23;20069;-59
2023/10/06 06:57:49;;;;;;;8.63;1.27;;;;;;;;;;6085291;23;20086;-59
2023/10/06 07:00:35;;;;;;;12.93;2.15;;;;;;;;;;6083023;23;20461;-59
2023/10/06 07:03:29;;;;;;;8.90;1.65;;;;;;;;;;6080855;23;20026;-59
2023/10/06 07:06:16;;;;;;;4.05;1.40;;;;;;;;;;6082198;23;20606;-60
2023/10/06 07:09:12;;;;;;;2.63;0.90;;;;;;;;;;6080015;23;20018;-59
2023/10/06 07:11:57;;;;;;;5.57;1.02;;;;;;;;;;6078939;23;20624;-58
2023/10/06 07:14:50;;;;;;;3.55;1.13;;;;;;;;;;6080366;23;20241;-57
2023/10/06 07:17:38;;;;;;;3.40;0.75;;;;;;;;;;6077267;23;20033;-58
2023/10/06 07:20:38;;;;;;;4.05;1.02;;;;;;;;;;6054172;23;20059;-58
2023/10/06 07:23:34;;;;;;;2.38;0.80;;;;;;;;;;6051890;23;20027;-58
2023/10/06 07:26:25;;;;;;;3.20;1.05;;;;;;;;;;6053978;23;20031;-58
2023/10/06 07:29:14;;;;;;;3.42;0.95;;;;;;;;;;6051900;23;20022;-55
2023/10/06 07:32:06;;;;;;;0.82;0.60;;;;;;;;;;6050033;23;20027;-65
2023/10/06 07:34:54;;;;;;;2.08;0.90;;;;;;;;;;6050195;23;20149;-63
2023/10/06 07:37:49;;;;;;;1.50;0.70;;;;;;;;;;6051657;23;20596;-64
2023/10/06 07:40:37;;;;;;;2.55;0.65;;;;;;;;;;6054203;23;20098;-64
2023/10/06 07:43:30;;;;;;;4.20;0.45;;;;;;;;;;6053522;23;20122;-64
2023/10/06 07:46:26;;;;;;;2.65;0.77;;;;;;;;;;6053123;23;20097;-65
2023/10/06 07:49:12;;;;;;;2.70;0.60;;;;;;;;;;6052305;23;20026;-47
2023/10/06 07:52:07;;;;;;;1.60;0.40;;;;;;;;;;6054083;23;20450;-58
2023/10/06 07:54:53;;;;;;;0.82;0.40;;;;;;;;;;6053697;23;20070;-58
2023/10/06 07:57:47;;;;;;;1.10;0.50;;;;;;;;;;6050406;23;20046;-58
2023/10/06 08:00:38;;;;;;;1.80;0.40;;;;;;;;;;6052485;23;20090;-59
2023/10/06 08:03:27;;;;;;;3.28;0.50;;;;;;;;;;6049382;23;20030;-58
2023/10/06 08:06:15;;;;;;;6.10;0.68;;;;;;;;;;6054371;23;20093;-59
2023/10/06 08:09:10;;;;;;;2.25;0.65;;;;;;;;;;6053082;23;20407;-53
2023/10/06 08:11:55;;;;;;;0.65;0.52;;;;;;;;;;6054624;23;20026;-50
2023/10/06 08:14:50;;;;;;;1.73;1.15;;;;;;;;;;6050655;23;20091;-53
2023/10/06 08:17:37;;;;;;;3.15;0.77;;;;;;;;;;6053532;23;20370;-54
2023/10/06 08:20:40;;;;;;;0.80;0.30;;;;;;;;;;6053610;23;20090;-51
2023/10/06 08:23:25;;;;;;;0.38;0.30;;;;;;;;;;6053795;23;20031;-48
2023/10/06 08:26:40;;;;;;;1.15;0.38;;;;;;;;;;6051675;23;20023;-65
2023/10/06 08:29:34;;;;;;;0.32;0.30;;;;;;;;;;6055224;23;20038;-63
2023/10/06 08:32:21;;;;;;;2.08;0.30;;;;;;;;;;6053900;23;20042;-65
2023/10/06 08:35:15;;;;;;;0.10;0.10;;;;;;;;;;6055606;23;20042;-65
2023/10/06 08:38:02;;;;;;;0.20;0.20;;;;;;;;;;6053738;23;20098;-64
2023/10/06 08:41:01;;;;;;;0.30;0.25;;;;;;;;;;6049468;23;20034;-65
2023/10/06 08:43:50;;;;;;;1.05;0.30;;;;;;;;;;6055000;23;20117;-63
2023/10/06 08:46:44;;;;;;;0.40;0.30;;;;;;;;;;6050492;23;20031;-63
2023/10/06 08:49:50;;;;;;;0.25;0.25;;;;;;;;;;6056259;23;20347;-63
2023/10/06 08:52:50;;;;;;;0.88;0.40;;;;;;;;;;6054098;23;20027;-64
2023/10/06 08:55:33;;;;;;;2.72;0.30;;;;;;;;;;6055729;23;20106;-63
2023/10/06 08:58:27;;;;;;;2.90;0.30;;;;;;;;;;6052528;23;20062;-64
2023/10/06 09:01:14;;;;;;;0.45;0.40;;;;;;;;;;6051599;23;20019;-59
2023/10/06 09:04:09;;;;;;;1.55;0.20;;;;;;;;;;6054330;23;20194;-59
2023/10/06 09:07:16;;;;;;;2.28;0.32;;;;;;;;;;6054385;23;20030;-60
2023/10/06 09:10:17;;;;;;;0.32;0.22;;;;;;;;;;6052984;23;20839;-60
2023/10/06 09:13:11;;;;;;;0.52;0.50;;;;;;;;;;6056328;23;20038;-59
2023/10/06 09:16:10;;;;;;;1.50;0.30;;;;;;;;;;6051716;23;20365;-59
2023/10/06 09:19:00;;;;;;;3.20;0.40;;;;;;;;;;6055013;23;20027;-57
2023/10/06 09:22:02;;;;;;;1.08;0.28;;;;;;;;;;6052190;23;20031;-60
2023/10/06 09:24:59;;;;;;;2.53;0.40;;;;;;;;;;6056046;23;20621;-59
2023/10/06 09:28:04;;;;;;;0.55;0.30;;;;;;;;;;6053430;23;20030;-59
2023/10/06 09:31:00;;;;;;;0.57;0.35;;;;;;;;;;6054435;23;20420;-60
2023/10/06 09:33:54;;;;;;;2.30;0.40;;;;;;;;;;6052199;23;20106;-59
2023/10/06 09:36:43;;;;;;;0.90;0.20;;;;;;;;;;6051572;23;20083;-59
2023/10/06 09:39:37;;;;;;;0.35;0.35;;;;;;;;;;6054879;23;20406;-65
2023/10/06 09:42:33;;;;;;;0.30;0.30;;;;;;;;;;6055396;23;20027;-53
2023/10/06 09:45:30;;;;;;;0.60;0.43;;;;;;;;;;6052579;23;20027;-54
2023/10/06 09:48:17;;;;;;;1.02;0.60;;;;;;;;;;6055043;23;20489;-52
2023/10/06 09:51:12;;;;;;;1.88;0.63;;;;;;;;;;6055159;23;20046;-52
2023/10/06 09:53:59;;;;;;;2.92;0.57;;;;;;;;;;6053981;23;20740;-53
2023/10/06 09:56:55;;;;;;;2.80;0.88;;;;;;;;;;6050514;23;20111;-55
2023/10/06 09:59:40;;;;;;;3.22;0.52;;;;;;;;;;6052932;23;20094;-59
2023/10/06 10:02:35;;;;;;;3.85;0.70;;;;;;;;;;6054677;23;20098;-58
2023/10/06 10:05:23;;;;;;;4.10;0.87;;;;;;;;;;6050996;23;20026;-59
2023/10/06 10:08:18;;;;;;;3.83;1.10;;;;;;;;;;6051586;23;20623;-59
2023/10/06 10:11:07;;;;;;;5.45;1.30;;;;;;;;;;6056322;23;20079;-59
2023/10/06 10:14:07;;;;;;;4.55;1.50;;;;;;;;;;6051036;23;20410;-65
2023/10/06 10:17:00;;;;;;;5.75;1.33;;;;;;;;;;6052355;23;20119;-60
2023/10/06 10:20:05;;;;;;;5.97;1.30;;;;;;;;;;6052707;23;20097;-59
2023/10/06 10:22:52;;;;;;;4.97;1.23;;;;;;;;;;6052064;23;20019;-59
2023/10/06 10:25:44;;;;;;;7.30;1.20;;;;;;;;;;6054444;23;20054;-59
2023/10/06 10:28:30;;;;;;;6.93;1.20;;;;;;;;;;6051585;23;20027;-58
2023/10/06 10:31:23;;;;;;;4.95;1.35;;;;;;;;;;6055020;23;20022;-59
2023/10/06 10:34:33;;;;;;;5.50;1.73;;;;;;;;;;6053357;23;20074;-62
2023/10/06 10:37:20;;;;;;;9.18;2.03;;;;;;;;;;6051096;23;20034;-65
2023/10/06 10:40:16;;;;;;;7.65;2.05;;;;;;;;;;6052312;23;20090;-66
2023/10/06 10:43:06;;;;;;;12.73;1.88;;;;;;;;;;6054236;23;20030;-65
2023/10/06 10:46:00;;;;;;;7.60;1.80;;;;;;;;;;6049394;23;20027;-66
2023/10/06 10:48:48;;;;;;;11.00;1.98;;;;;;;;;;6051298;23;20455;-65
2023/10/06 10:51:49;;;;;;;4.20;1.55;;;;;;;;;;6054077;23;20026;-59
2023/10/06 10:54:42;;;;;;;8.65;2.00;;;;;;;;;;6051944;23;20034;-54
2023/10/06 10:57:35;;;;;;;9.00;1.90;;;;;;;;;;6052394;23;20026;-53
2023/10/06 11:00:23;;;;;;;9.63;2.13;;;;;;;;;;6055784;23;20023;-53
2023/10/06 11:03:16;;;;;;;11.60;2.30;;;;;;;;;;6051379;23;20399;-50
2023/10/06 11:06:03;;;;;;;14.63;2.90;;;;;;;;;;6051121;23;20033;-54
2023/10/06 11:08:56;;;;;;;12.70;3.63;;;;;;;;;;6053068;23;20418;-60
2023/10/06 11:11:44;;;;;;;12.02;3.13;;;;;;;;;;6051652;23;20228;-62
2023/10/06 11:14:51;;;;;;;18.67;3.47;;;;;;;;;;6052488;23;20023;-64
2023/10/06 11:17:38;;;;;;;18.02;3.65;;;;;;;;;;6051846;23;20034;-65
2023/10/06 11:20:43;;;;;;;15.38;3.33;;;;;;;;;;6048311;23;20461;-65
2023/10/06 11:23:43;;;;;;;28.70;4.70;;;;;;;;;;6051856;23;20031;-65
2023/10/06 11:26:33;;;;;;;18.77;3.83;;;;;;;;;;6052140;23;20285;-65
2023/10/06 11:29:27;;;;;;;21.75;4.63;;;;;;;;;;6051943;23;20082;-58
2023/10/06 11:32:15;;;;;;;16.57;3.50;;;;;;;;;;6050080;23;20030;-45
2023/10/06 11:35:10;;;;;;;21.08;4.43;;;;;;;;;;6052237;23;20094;-47
2023/10/06 11:37:59;;;;;;;21.25;4.47;;;;;;;;;;6052694;23;20023;-48
2023/10/06 11:40:51;;;;;;;24.17;3.72;;;;;;;;;;6052718;23;20417;-45
2023/10/06 11:43:39;;;;;;;20.83;4.15;;;;;;;;;;6055131;23;20018;-47
2023/10/06 11:46:47;;;;;;;21.83;5.15;;;;;;;;;;6050771;23;20027;-47
2023/10/06 11:49:52;;;;;;;26.65;5.18;;;;;;;;;;6054600;23;20102;-49
2023/10/06 11:52:48;;;;;;;24.88;4.72;;;;;;;;;;6052676;23;20102;-46
2023/10/06 11:55:35;;;;;;;31.20;5.50;;;;;;;;;;6050057;23;20564;-47
2023/10/06 11:58:33;;;;;;;25.08;4.78;;;;;;;;;;6053370;23;20407;-45
2023/10/06 12:01:36;;;;;;;35.45;5.32;;;;;;;;;;6051826;23;20023;-47
2023/10/06 12:04:30;;;;;;;26.23;5.00;;;;;;;;;;6048178;23;20535;-65
2023/10/06 12:07:21;;;;;;;23.70;4.57;;;;;;;;;;6050494;23;20038;-60
2023/10/06 12:10:08;;;;;;;30.37;6.13;;;;;;;;;;6054400;23;20030;-61
2023/10/06 12:13:05;;;;;;;29.30;6.03;;;;;;;;;;6054939;23;20763;-61
2023/10/06 12:15:50;;;;;;;31.25;5.15;;;;;;;;;;6051137;23;20030;-60
2023/10/06 12:18:50;;;;;;;29.63;6.05;;;;;;;;;;6053540;23;20267;-60
2023/10/06 12:21:38;;;;;;;34.47;6.45;;;;;;;;;;6048968;23;20023;-60
2023/10/06 12:24:31;;;;;;;29.85;5.90;;;;;;;;;;6048454;23;20033;-64
2023/10/06 12:27:18;;;;;;;32.38;6.00;;;;;;;;;;6055042;23;20200;-50
2023/10/06 12:30:14;;;;;;;37.03;6.53;;;;;;;;;;6049615;23;20038;-54
2023/10/06 12:33:02;;;;;;;34.97;5.78;;;;;;;;;;6050894;23;20030;-50
2023/10/06 12:35:55;;;;;;;27.77;4.97;;;;;;;;;;6050104;23;20057;-46
2023/10/06 12:38:50;;;;;;;30.60;5.80;;;;;;;;;;6049634;23;20026;-45
2023/10/06 12:41:41;;;;;;;30.15;5.28;;;;;;;;;;6052828;23;20074;-59
2023/10/06 12:44:33;;;;;;;33.35;5.20;;;;;;;;;;6048714;23;20097;-59
2023/10/06 12:47:26;;;;;;;29.42;5.35;;;;;;;;;;6050657;23;20026;-58
2023/10/06 12:50:16;;;;;;;37.83;6.00;;;;;;;;;;6052748;23;20169;-58
2023/10/06 12:53:09;;;;;;;34.90;5.55;;;;;;;;;;6049050;23;20023;-59
2023/10/06 12:55:56;;;;;;;33.85;5.63;;;;;;;;;;6053560;23;20027;-58
2023/10/06 12:58:50;;;;;;;32.55;5.75;;;;;;;;;;6055174;23;20718;-59
2023/10/06 13:01:38;;;;;;;32.20;5.45;;;;;;;;;;6051719;23;20027;-53
2023/10/06 13:04:32;;;;;;;33.22;5.97;;;;;;;;;;6048570;23;20034;-60
2023/10/06 13:07:20;;;;;;;47.92;6.82;;;;;;;;;;6052816;23;20030;-60
2023/10/06 13:10:15;;;;;;;39.72;6.57;;;;;;;;;;6053551;23;20454;-60
2023/10/06 13:13:06;;;;;;;41.58;6.72;;;;;;;;;;6052496;23;20290;-60
2023/10/06 13:15:55;;;;;;;38.47;6.35;;;;;;;;;;6056754;23;20474;-59
2023/10/06 13:18:56;;;;;;;42.72;6.85;;;;;;;;;;6055034;23;20027;-61
2023/10/06 13:21:52;;;;;;;32.08;5.43;;;;;;;;;;6051629;23;20078;-63
2023/10/06 13:24:43;;;;;;;33.13;5.43;;;;;;;;;;6051970;23;20354;-63
2023/10/06 13:27:31;;;;;;;28.40;4.68;;;;;;;;;;6050386;23;20027;-63
2023/10/06 13:30:25;;;;;;;31.02;6.00;;;;;;;;;;6056034;23;20023;-62
2023/10/06 13:33:14;;;;;;;23.48;4.57;;;;;;;;;;6051112;23;20034;-63
2023/10/06 13:36:08;;;;;;;34.30;5.97;;;;;;;;;;6050172;23;20023;-60
2023/10/06 13:38:54;;;;;;;38.05;6.13;;;;;;;;;;6053682;23;20106;-59
2023/10/06 13:41:49;;;;;;;25.00;4.78;;;;;;;;;;6056417;23;20075;-59
2023/10/06 13:44:35;;;;;;;40.85;6.93;;;;;;;;;;6050612;23;20047;-58
2023/10/06 13:47:28;;;;;;;34.17;5.50;;;;;;;;;;6050497;23;20450;-59
2023/10/06 13:50:19;;;;;;;27.63;5.35;;;;;;;;;;6052881;23;20034;-59
2023/10/06 13:53:15;;;;;;;31.70;4.80;;;;;;;;;;6053326;23;20553;-58
2023/10/06 13:56:00;;;;;;;37.53;6.78;;;;;;;;;;6055885;23;20023;-58
2023/10/06 13:58:55;;;;;;;30.48;5.05;;;;;;;;;;6050276;23;20046;-60
2023/10/06 14:01:42;;;;;;;27.75;4.97;;;;;;;;;;6054152;23;20022;-60
2023/10/06 14:04:36;;;;;;;35.45;6.13;;;;;;;;;;6052080;23;20082;-60
2023/10/06 14:07:24;;;;;;;29.13;5.13;;;;;;;;;;6052521;23;20019;-60
2023/10/06 14:10:21;;;;;;;25.92;5.63;;;;;;;;;;6054483;23;20089;-60
2023/10/06 14:13:11;;;;;;;31.52;5.78;;;;;;;;;;6052686;23;20098;-50
2023/10/06 14:16:09;;;;;;;32.13;6.15;;;;;;;;;;6051356;23;20057;-66
2023/10/06 14:18:43;;;;;;;34.60;5.60;;;;;;;;;;6051093;23;20050;-65
2023/10/06 14:21:24;;;;;;;25.75;5.13;;;;;;;;;;6053465;23;20481;-66
2023/10/06 14:24:13;;;;;;;30.00;5.72;;;;;;;;;;6051496;23;20026;-66
2023/10/06 14:27:06;;;;;;;28.48;5.45;;;;;;;;;;6051812;23;20018;-66
2023/10/06 14:29:53;;;;;;;31.80;6.57;;;;;;;;;;6051425;23;20031;-64
2023/10/06 14:46:41;;;;;;;30.58;5.75;;;;;;;;;;6054407;23;20802;-66
2023/10/06 14:49:29;;;;;;;38.90;5.50;;;;;;;;;;6053515;23;20094;-67
2023/10/06 14:52:24;;;;;;;42.83;5.97;;;;;;;;;;6053003;23;20025;-58
2023/10/06 14:55:10;;;;;;;36.03;5.97;;;;;;;;;;6051528;23;20115;-59
2023/10/06 14:58:08;;;;;;;32.90;6.05;;;;;;;;;;6051381;23;20030;-58
2023/10/06 15:01:01;;;;;;;41.88;5.90;;;;;;;;;;6053309;23;20023;-58
2023/10/06 15:03:56;;;;;;;30.52;5.18;;;;;;;;;;6052887;23;20351;-58
2023/10/06 15:06:42;;;;;;;32.03;5.50;;;;;;;;;;6052036;23;20478;-59
2023/10/06 15:09:35;;;;;;;31.75;5.63;;;;;;;;;;6050551;23;20034;-53
2023/10/06 15:12:29;;;;;;;36.85;5.53;;;;;;;;;;6050113;23;20022;-59
2023/10/06 15:15:24;;;;;;;28.30;4.95;;;;;;;;;;6050557;23;20094;-59
2023/10/06 15:18:21;;;;;;;33.80;5.65;;;;;;;;;;6052328;23;20078;-59
2023/10/06 15:21:23;;;;;;;38.70;5.55;;;;;;;;;;6053777;23;20205;-59
2023/10/06 15:24:05;;;;;;;30.17;5.38;;;;;;;;;;6049414;23;20030;-59
2023/10/06 15:26:43;;;;;;;26.55;5.43;;;;;;;;;;6052938;23;20023;-59
2023/10/06 15:29:27;;;;;;;42.45;6.68;;;;;;;;;;6049459;23;20046;-60
2023/10/06 15:32:21;;;;;;;33.45;5.22;;;;;;;;;;6046447;23;20045;-59
2023/10/06 15:35:09;;;;;;;28.23;5.43;;;;;;;;;;6049870;23;20537;-60
2023/10/06 15:38:12;;;;;;;32.22;5.03;;;;;;;;;;6053226;23;20038;-60
2023/10/06 15:41:10;;;;;;;30.02;5.05;;;;;;;;;;6050283;23;20086;-59
2023/10/06 15:44:02;;;;;;;27.75;4.75;;;;;;;;;;6048628;23;20027;-59
2023/10/06 15:46:49;;;;;;;30.75;4.90;;;;;;;;;;6032340;23;20050;-48
2023/10/06 15:49:43;;;;;;;32.38;5.15;;;;;;;;;;6051408;23;20050;-58
2023/10/06 15:52:46;;;;;;;29.85;5.20;;;;;;;;;;6052487;23;20046;-58
2023/10/06 15:55:40;;;;;;;31.77;4.88;;;;;;;;;;6051339;23;20026;-59
2023/10/06 15:58:28;;;;;;;33.78;5.90;;;;;;;;;;6050666;23;20042;-57
2023/10/06 16:01:21;;;;;;;38.42;5.68;;;;;;;;;;6052403;23;20022;-58
2023/10/06 16:04:08;;;;;;;32.60;5.90;;;;;;;;;;6050842;23;20038;-65
2023/10/06 16:07:03;;;;;;;34.88;6.18;;;;;;;;;;6051285;23;20030;-60
2023/10/06 16:09:50;;;;;;;26.38;4.93;;;;;;;;;;6047335;23;20023;-60
2023/10/06 16:12:44;;;;;;;34.67;5.80;;;;;;;;;;6049742;23;20027;-59
2023/10/06 16:15:31;;;;;;;36.65;5.88;;;;;;;;;;6046751;23;20027;-60
2023/10/06 16:18:05;;;;;;;26.60;5.18;;;;;;;;;;6052176;23;20031;-59
2023/10/06 16:20:59;;;;;;;35.95;6.00;;;;;;;;;;6047734;23;20157;-60
2023/10/06 16:23:53;;;;;;;39.22;5.57;;;;;;;;;;6041898;23;20086;-58
2023/10/06 16:26:41;;;;;;;34.67;5.30;;;;;;;;;;6050237;23;20027;-52
2023/10/06 16:29:33;;;;;;;37.50;5.70;;;;;;;;;;6052252;23;20027;-55
2023/10/06 16:32:21;;;;;;;45.05;6.28;;;;;;;;;;6049135;23;20042;-52
2023/10/06 16:35:22;;;;;;;43.50;5.93;;;;;;;;;;6048666;23;20023;-50
2023/10/06 16:38:08;;;;;;;45.35;6.18;;;;;;;;;;6051185;23;20031;-55
2023/10/06 16:41:03;;;;;;;43.65;6.22;;;;;;;;;;6042908;23;20098;-66
2023/10/06 16:43:57;;;;;;;44.95;6.25;;;;;;;;;;6047914;23;20034;-54
2023/10/06 16:46:44;;;;;;;35.05;5.93;;;;;;;;;;6048743;23;20027;-54
2023/10/06 16:49:39;;;;;;;40.53;5.57;;;;;;;;;;6046821;23;20061;-54
2023/10/06 16:52:32;;;;;;;37.08;6.07;;;;;;;;;;6050861;23;20033;-52
2023/10/06 16:55:25;;;;;;;36.25;5.82;;;;;;;;;;6049110;23;20027;-52
2023/10/06 16:58:17;;;;;;;35.97;6.07;;;;;;;;;;6052293;23;20056;-46
2023/10/06 17:01:11;;;;;;;42.63;5.53;;;;;;;;;;6053520;23;20485;-68
2023/10/06 17:04:04;;;;;;;36.92;6.20;;;;;;;;;;6046771;23;20544;-68
2023/10/06 17:06:55;;;;;;;32.00;5.43;;;;;;;;;;6048624;23;20027;-68
2023/10/06 17:09:43;;;;;;;29.58;4.80;;;;;;;;;;6047723;23;20150;-69
2023/10/06 17:12:37;;;;;;;34.28;5.22;;;;;;;;;;6049839;23;20031;-68
2023/10/06 17:15:24;;;;;;;35.15;6.53;;;;;;;;;;6048243;23;20091;-67
2023/10/06 17:17:58;;;;;;;34.42;5.70;;;;;;;;;;6050915;23;20035;-60
2023/10/06 17:20:51;;;;;;;34.70;6.22;;;;;;;;;;6049840;23;20125;-60